Time;durP1;ratioP1;P1;durP2;ratioP2;P2;SDS_P1;SDS_P2;PMS_P1;PMS_P2;Temp;Humidity;BMP_temperature;BMP_pressure;BME280_temperature;BME280_humidity;BME280_pressure;Samples;Min_cycle;Max_cycle;Signal;HPM_P1;HPM_P2
2023/08/10 00:05:11;;;;;;;3.00;1.67;;;;;;;21.52;52.50;100563.50;41543490;28;20113;-79
2023/08/10 00:25:12;;;;;;;1.90;1.50;;;;;;;21.46;52.70;100567.47;41527591;28;20058;-81
2023/08/10 00:45:12;;;;;;;2.10;1.67;;;;;;;21.23;53.43;100543.69;41589716;28;20042;-77
2023/08/10 01:05:13;;;;;;;2.45;1.40;;;;;;;20.84;53.57;100506.22;41572720;28;20046;-81
2023/08/10 01:25:15;;;;;;;1.77;1.52;;;;;;;20.84;54.20;100544.88;41562028;28;20088;-81
2023/08/10 01:45:18;;;;;;;1.75;1.65;;;;;;;20.70;54.76;100564.25;41578119;28;20064;-79
2023/08/10 02:05:18;;;;;;;2.20;1.80;;;;;;;20.46;55.25;100534.34;41533991;28;20060;-77
2023/08/10 02:25:21;;;;;;;2.03;1.83;;;;;;;20.69;55.41;100549.41;41461018;28;20057;-81
2023/08/10 02:45:21;;;;;;;2.55;2.15;;;;;;;20.67;55.14;100551.34;41338151;28;20129;-81
2023/08/10 03:05:21;;;;;;;5.18;2.83;;;;;;;20.31;55.94;100536.28;41357917;28;20050;-80
2023/08/10 03:25:22;;;;;;;3.50;3.20;;;;;;;20.40;55.92;100561.09;41492198;28;20042;-80
2023/08/10 03:45:22;;;;;;;5.90;3.15;;;;;;;20.23;56.52;100564.09;41503760;28;20038;-77
2023/08/10 04:05:22;;;;;;;4.32;3.85;;;;;;;20.10;56.83;100587.75;41512356;28;20038;-80
2023/08/10 04:25:23;;;;;;;5.68;4.55;;;;;;;20.08;56.82;100616.78;41492669;28;20053;-79
2023/08/10 04:45:24;;;;;;;4.65;4.07;;;;;;;19.94;56.53;100588.81;41520192;28;20076;-77
2023/08/10 05:05:25;;;;;;;4.60;4.20;;;;;;;19.38;58.87;100624.97;41487303;28;20079;-71
2023/08/10 05:25:25;;;;;;;5.03;3.70;;;;;;;20.15;56.70;100636.44;41523057;28;20037;-74
2023/08/10 05:45:26;;;;;;;6.45;3.38;;;;;;;20.53;55.53;100647.88;41511402;28;20034;-77
2023/08/10 06:05:26;;;;;;;7.40;2.85;;;;;;;20.73;55.37;100670.16;41334119;28;20057;-75
2023/08/10 06:25:27;;;;;;;3.40;2.20;;;;;;;20.76;55.04;100664.69;41356373;28;20080;-71
2023/08/10 06:45:27;;;;;;;3.20;2.20;;;;;;;20.58;55.03;100668.56;41340136;28;20101;-69
2023/08/10 07:05:31;;;;;;;4.38;2.30;;;;;;;20.74;54.23;100681.53;41318604;28;20540;-70
2023/08/10 07:25:32;;;;;;;2.17;1.70;;;;;;;20.74;53.56;100697.34;41296961;28;20039;-71
2023/08/10 07:45:33;;;;;;;2.08;1.63;;;;;;;20.87;52.87;100684.13;41351939;28;20062;-70
2023/08/10 08:05:37;;;;;;;1.60;1.30;;;;;;;20.78;51.95;100683.00;41450146;28;20080;-70
2023/08/10 08:25:37;;;;;;;1.63;1.30;;;;;;;21.17;49.79;100691.63;41531044;28;20109;-70
2023/08/10 08:45:44;;;;;;;3.47;1.52;;;;;;;20.91;48.83;100668.00;41487046;28;20042;-70
2023/08/10 09:05:47;;;;;;;2.33;1.45;;;;;;;21.35;48.00;100713.16;41440427;28;20188;-71
2023/08/10 09:25:47;;;;;;;2.60;1.55;;;;;;;21.43;45.97;100702.88;41461824;28;20045;-70
2023/08/10 09:46:01;;;;;;;2.30;1.50;;;;;;;21.52;44.16;100704.00;41423041;28;20046;-71
2023/08/10 10:06:02;;;;;;;1.15;1.05;;;;;;;21.79;41.78;100696.81;41463564;28;20038;-72
2023/08/10 10:26:06;;;;;;;1.50;1.10;;;;;;;22.21;39.90;100684.78;41320620;28;20046;-73
2023/08/10 10:46:07;;;;;;;1.48;1.05;;;;;;;22.56;41.69;100675.13;41443987;28;20140;-78
2023/08/10 11:06:13;;;;;;;1.50;1.20;;;;;;;22.68;40.10;100670.69;41505711;28;20052;-78
2023/08/10 11:26:14;;;;;;;3.20;1.20;;;;;;;23.01;38.05;100635.44;41459312;28;20042;-81
2023/08/10 11:46:16;;;;;;;1.40;1.30;;;;;;;23.42;38.01;100651.50;41306888;28;20493;-74
2023/08/10 12:06:17;;;;;;;1.70;1.30;;;;;;;23.61;37.16;100640.25;41368783;28;20070;-81
2023/08/10 12:26:17;;;;;;;3.55;1.50;;;;;;;23.48;37.34;100595.50;41378723;28;20527;-81
2023/08/10 12:46:19;;;;;;;3.10;1.20;;;;;;;23.93;36.02;100627.94;41535554;28;20045;-78
2023/08/10 13:06:19;;;;;;;2.70;1.30;;;;;;;24.04;35.40;100619.09;41576446;28;20080;-76
2023/08/10 13:26:19;;;;;;;1.67;1.00;;;;;;;24.11;37.07;100610.50;41574641;28;20052;-81
2023/08/10 13:46:20;;;;;;;1.15;0.90;;;;;;;24.58;33.49;100599.38;41564074;28;20100;-80
2023/08/10 14:06:20;;;;;;;1.40;1.00;;;;;;;24.18;34.84;100559.69;41578251;28;20472;-78
2023/08/10 14:26:21;;;;;;;3.15;1.15;;;;;;;24.34;36.34;100607.66;41576506;28;20030;-80
2023/08/10 14:46:22;;;;;;;1.75;1.10;;;;;;;24.81;34.86;100599.16;41384289;28;20552;-83
2023/08/10 15:06:22;;;;;;;4.05;1.50;;;;;;;24.68;35.29;100595.91;41508010;28;20046;-78
2023/08/10 15:26:22;;;;;;;2.00;0.80;;;;;;;24.82;33.47;100597.34;41497991;28;20064;-80
2023/08/10 15:46:23;;;;;;;1.52;1.20;;;;;;;24.65;33.41;100617.34;41466863;28;20568;-77
2023/08/10 16:06:24;;;;;;;1.85;0.93;;;;;;;24.59;32.91;100600.19;41316655;28;20046;-84
2023/08/10 16:26:25;;;;;;;2.00;1.20;;;;;;;24.51;34.56;100624.72;41465805;28;20050;-82
2023/08/10 16:46:25;;;;;;;2.83;1.00;;;;;;;24.33;33.38;100645.69;41465898;28;20058;-81
2023/08/10 17:06:26;;;;;;;1.73;1.40;;;;;;;24.16;33.96;100668.31;41461451;28;20045;-79
2023/08/10 17:26:27;;;;;;;2.58;2.10;;;;;;;23.88;34.01;100685.66;41478103;28;20088;-81
2023/08/10 17:46:28;;;;;;;1.75;1.50;;;;;;;23.70;35.30;100694.16;41448828;28;20107;-78
2023/08/10 18:06:29;;;;;;;3.90;1.55;;;;;;;23.57;35.24;100702.28;41318096;28;20082;-73
2023/08/10 18:26:30;;;;;;;33.33;6.38;;;;;;;23.31;35.33;100707.91;41277288;28;20441;-72
2023/08/10 18:46:33;;;;;;;5.43;1.90;;;;;;;22.93;36.56;100737.38;41347847;28;20108;-73
2023/08/10 19:06:34;;;;;;;3.25;2.25;;;;;;;22.62;37.32;100748.53;41400199;28;20062;-75
2023/08/10 19:26:35;;;;;;;4.00;1.90;;;;;;;22.57;37.45;100753.34;41396162;28;20410;-72
2023/08/10 19:46:36;;;;;;;5.20;2.10;;;;;;;22.55;38.23;100768.44;41413947;28;20046;-71
2023/08/10 20:06:37;;;;;;;3.58;2.20;;;;;;;22.86;38.26;100781.88;41432399;28;20042;-71
2023/08/10 20:26:39;;;;;;;2.88;2.25;;;;;;;22.79;38.41;100780.69;41416442;28;20041;-71
2023/08/10 20:46:40;;;;;;;5.07;2.38;;;;;;;22.48;39.35;100756.69;41408437;28;20481;-71
2023/08/10 21:06:41;;;;;;;3.55;2.33;;;;;;;22.52;40.04;100784.50;41465245;28;20045;-71
2023/08/10 21:26:42;;;;;;;3.10;2.42;;;;;;;22.50;40.66;100786.44;41349247;28;20087;-71
2023/08/10 21:46:43;;;;;;;3.05;2.10;;;;;;;22.37;40.42;100773.31;41444786;28;20133;-71
2023/08/10 22:06:44;;;;;;;3.65;1.65;;;;;;;22.31;40.58;100785.16;41462513;28;20038;-71
2023/08/10 22:26:44;;;;;;;3.03;2.20;;;;;;;22.24;40.46;100783.97;41381989;28;20046;-71
2023/08/10 22:46:45;;;;;;;4.18;2.10;;;;;;;22.16;40.40;100786.34;41346722;28;20049;-71
2023/08/10 23:06:45;;;;;;;4.38;1.70;;;;;;;22.03;40.77;100776.72;41444077;28;20408;-73
2023/08/10 23:26:46;;;;;;;2.72;1.90;;;;;;;21.98;41.11;100760.38;41397108;28;20501;-71
2023/08/10 23:46:46;;;;;;;3.00;1.88;;;;;;;21.97;41.10;100786.88;41448029;28;20050;-71
